Grande Portogallo — IBZW — position and weather

sailwx.info

Track history (hours):
 
Tides and Currents Weather Stations Pressure Air Temp Water Temp Dewpoint Dewpoint Depression Visibility Wind Speed Wind Dir Waves Ship Positions

Grande Portogallo

Last reported at 2018-Jun-22 22:35 UTC. Time now 2018-Jun-23 02:54 UTC.
Position N 40°30' E 026°59'.

Length 176 m; draft 7.3 m.

Type: Cargo ship. MMSI: 247065500.

Date/timePositionNaut miles runAvg speedWind from/ knotsBaromVisibWave heightAir tempDewpointWater temp
2018-Jun-22 22:35N 40°30' E 026°59'316.1
2018-Jun-22 22:22N 40°29' E 026°55'815.9
2018-Jun-22 21:51N 40°26' E 026°45'411.1
2018-Jun-22 21:30N 40°23' E 026°41'2913.2
2018-Jun-22 19:18N 40°02' E 026°15'410.6
2018-Jun-22 18:54N 40°01' E 026°10'615.3
2018-Jun-22 18:30N 39°59' E 026°02'715.2
2018-Jun-22 18:00N 39°53' E 025°55'815.0
2018-Jun-22 17:30N 39°48' E 025°50'816.2
2018-Jun-22 17:00N 39°40' E 025°45'14716.1
2018-Jun-22 07:49N 37°29' E 024°20'2115.9
2018-Jun-22 06:28N 37°12' E 024°03'816.1
2018-Jun-22 05:59N 37°05' E 023°57'816.3
2018-Jun-22 05:30N 36°59' E 023°52'816.2
2018-Jun-22 05:00N 36°53' E 023°45'1116.2
2018-Jun-22 04:19N 36°44' E 023°37'516.0
2018-Jun-22 04:00N 36°40' E 023°33'36715.5
2018-Jun-21 04:22N 37°47' E 016°01'615.7
2018-Jun-21 04:01N 37°49' E 015°54'815.9
2018-Jun-21 03:30N 37°51' E 015°44'1014.2
2018-Jun-21 02:49N 37°57' E 015°34'515.7
2018-Jun-21 02:30N 38°02' E 015°33'816.4
2018-Jun-21 02:00N 38°10' E 015°35'917.0
2018-Jun-21 01:30N 38°17' E 015°40'612.5
2018-Jun-21 01:00N 38°23' E 015°38'13215.7
2018-Jun-20 16:37N 40°28' E 014°43'216.4
2018-Jun-20 16:29N 40°30' E 014°42'6 0.5
2018-Jun-20 03:18N 40°36' E 014°42'517.1
2018-Jun-20 03:00N 40°34' E 014°36'611.4
2018-Jun-20 02:30N 40°32' E 014°29'5 9.7
2018-Jun-20 02:00N 40°30' E 014°23'5 9.7
2018-Jun-20 01:30N 40°28' E 014°17'510.8
2018-Jun-20 01:00N 40°26' E 014°11'815.2
2018-Jun-20 00:30N 40°23' E 014°02'815.2
2018-Jun-20 00:01N 40°20' E 013°52'815.1
2018-Jun-19 23:31N 40°17' E 013°43'815.0
2018-Jun-19 23:01N 40°14' E 013°34'1215.2
2018-Jun-19 22:13N 40°09' E 013°20'1115.4
2018-Jun-19 21:30N 40°04' E 013°07'915.4
2018-Jun-19 20:56N 40°01' E 012°56'2815.9
2018-Jun-19 19:09N 39°50' E 012°22'216.2
2018-Jun-19 19:00N 39°50' E 012°19'815.9
2018-Jun-19 18:31N 39°47' E 012°09'915.7
2018-Jun-19 17:56N 39°43' E 011°59'715.5
2018-Jun-19 17:27N 39°40' E 011°50'39716.5
2018-Jun-18 17:24N 39°01' E 003°18'1019.0
2018-Jun-18 16:54N 39°02' E 003°06'719.1
2018-Jun-18 16:30N 39°03' E 002°56'1019.0
2018-Jun-18 15:59N 39°04' E 002°44'918.7
2018-Jun-18 15:30N 39°05' E 002°32'1018.7
2018-Jun-18 14:59N 39°06' E 002°20'3618.9
2018-Jun-18 13:05N 39°12' E 001°34'219.0
2018-Jun-18 12:59N 39°12' E 001°31'918.8
2018-Jun-18 12:30N 39°13' E 001°20'7216.0
2018-Jun-18 08:01N 39°25' W 000°12'015.4
2018-Jun-18 08:00N 39°25' W 000°12'510.2
2018-Jun-18 07:30N 39°26' W 000°18'0 0.1
2018-Jun-18 06:58N 39°26' W 000°18'0 0.0
2018-Jun-18 06:28N 39°26' W 000°18'0 0.0
2018-Jun-18 05:58N 39°26' W 000°18'0 0.0
2018-Jun-18 05:28N 39°26' W 000°18'0 0.0
2018-Jun-18 04:58N 39°26' W 000°18'0 0.0
2018-Jun-18 04:28N 39°26' W 000°18'0 0.0
2018-Jun-18 03:58N 39°26' W 000°18'0 0.0
2018-Jun-18 03:28N 39°26' W 000°18'0 0.0
2018-Jun-18 02:58N 39°26' W 000°18'0 0.0
2018-Jun-18 02:28N 39°26' W 000°18'0 0.0
2018-Jun-18 01:58N 39°26' W 000°18'0 0.0
2018-Jun-18 01:28N 39°26' W 000°18'0 0.0
2018-Jun-18 00:58N 39°26' W 000°18'0 0.0
2018-Jun-18 00:28N 39°26' W 000°18'0 0.0
2018-Jun-17 23:58N 39°26' W 000°18'0 0.0
2018-Jun-17 23:28N 39°26' W 000°18'0 0.0
2018-Jun-17 22:58N 39°26' W 000°18'0 0.0
2018-Jun-17 22:28N 39°26' W 000°18'0 0.0
2018-Jun-17 21:58N 39°26' W 000°18'0 0.0
2018-Jun-17 21:28N 39°26' W 000°18'0 0.0
2018-Jun-17 20:58N 39°26' W 000°18'0 0.0
2018-Jun-17 20:28N 39°26' W 000°18'0 0.0
2018-Jun-17 19:58N 39°26' W 000°18'0 0.0
2018-Jun-17 19:28N 39°26' W 000°18'0 0.0
2018-Jun-17 18:58N 39°26' W 000°18'0 0.1
2018-Jun-17 18:30N 39°26' W 000°18'4613.8
2018-Jun-17 15:09N 38°52' E 000°22'316.1
2018-Jun-17 14:59N 38°50' E 000°24'714.5
2018-Jun-17 14:30N 38°44' E 000°28'815.9
2018-Jun-17 14:00N 38°37' E 000°24'915.8
2018-Jun-17 13:27N 38°30' E 000°17'715.7
2018-Jun-17 13:00N 38°24' E 000°12'815.6
2018-Jun-17 12:30N 38°18' E 000°07'815.7
2018-Jun-17 11:59N 38°11' E 000°01'815.7
2018-Jun-17 11:30N 38°04' W 000°04'815.6
2018-Jun-17 11:00N 37°58' W 000°10'815.5
2018-Jun-17 10:30N 37°52' W 000°15'815.5
2018-Jun-17 10:00N 37°45' W 000°21'815.2
2018-Jun-17 09:30N 37°39' W 000°26'815.0
2018-Jun-17 09:00N 37°33' W 000°31'815.4
2018-Jun-17 08:29N 37°27' W 000°39'715.4
2018-Jun-17 08:00N 37°22' W 000°46'714.9
2018-Jun-17 07:30N 37°18' W 000°53'815.2
2018-Jun-17 06:59N 37°13' W 001°01'815.6
2018-Jun-17 06:30N 37°07' W 001°08'1018.3
2018-Jun-17 05:56N 37°00' W 001°17'918.3
2018-Jun-17 05:28N 36°54' W 001°25'18218.1
2018-Jun-16 19:24N 36°02' W 005°02'920.2
2018-Jun-16 18:58N 36°01' W 005°12'920.4
2018-Jun-16 18:30N 35°58' W 005°24'9118.9
2018-Jun-16 13:39N 36°09' W 007°16'818.1
2018-Jun-16 13:13N 36°11' W 007°25'418.1
2018-Jun-16 13:00N 36°12' W 007°30'918.2
2018-Jun-16 12:30N 36°15' W 007°41'918.1
2018-Jun-16 12:00N 36°17' W 007°51'918.0
2018-Jun-16 11:30N 36°20' W 008°02'918.3
2018-Jun-16 11:00N 36°23' W 008°13'1318.4
2018-Jun-16 10:19N 36°27' W 008°28'618.6
2018-Jun-16 10:00N 36°29' W 008°34'1418.3
2018-Jun-16 09:14N 36°32' W 008°52'418.0
2018-Jun-16 09:00N 36°32' W 008°57'5716.1
2018-Jun-16 05:29N 37°17' W 009°40'1018.1
2018-Jun-16 04:57N 37°27' W 009°42'818.2
2018-Jun-16 04:30N 37°34' W 009°45'918.2
2018-Jun-16 04:00N 37°43' W 009°48'1018.0
2018-Jun-16 03:27N 37°53' W 009°51'818.1
2018-Jun-16 03:00N 38°01' W 009°53'918.3
2018-Jun-16 02:30N 38°10' W 009°56'918.4
2018-Jun-16 02:00N 38°19' W 009°58'918.5
2018-Jun-16 01:30N 38°28' W 010°01'918.5
2018-Jun-16 01:00N 38°37' W 010°04'918.5
2018-Jun-16 00:30N 38°46' W 010°06'918.2
2018-Jun-16 00:00N 38°55' W 010°06'918.3
2018-Jun-15 23:30N 39°04' W 010°07'918.5
2018-Jun-15 23:00N 39°13' W 010°07'918.6
2018-Jun-15 22:30N 39°23' W 010°08'1018.5
2018-Jun-15 21:58N 39°33' W 010°08'818.3
2018-Jun-15 21:30N 39°41' W 010°08'918.3
2018-Jun-15 21:00N 39°50' W 010°08'2418.5
2018-Jun-15 19:42N 40°14' W 010°08'1118.7
2018-Jun-15 19:05N 40°26' W 010°08'418.2
2018-Jun-15 18:52N 40°30' W 010°08'1718.4
2018-Jun-15 17:56N 40°47' W 010°08'818.2
2018-Jun-15 17:30N 40°55' W 010°08'48217.5
2018-Jun-14 14:03N 48°25' W 006°08'616.2
2018-Jun-14 13:40N 48°30' W 006°03'1116.9
2018-Jun-14 13:00N 48°40' W 005°55'1417.2
2018-Jun-14 12:12N 48°52' W 005°45'1817.7
2018-Jun-14 11:11N 49°02' W 005°22'318.2
2018-Jun-14 11:00N 49°04' W 005°18'1918.3
2018-Jun-14 09:59N 49°13' W 004°53'5816.6
2018-Jun-14 06:31N 49°42' W 003°37'015.0
2018-Jun-14 06:30N 49°43' W 003°37'814.8
2018-Jun-14 05:58N 49°47' W 003°26'714.9
2018-Jun-14 05:31N 49°50' W 003°17'815.4
2018-Jun-14 05:00N 49°55' W 003°07'816.5
2018-Jun-14 04:30N 49°58' W 002°56'917.5
2018-Jun-14 03:59N 50°01' W 002°42'1518.9
2018-Jun-14 03:10N 50°06' W 002°19'320.0
2018-Jun-14 03:00N 50°07' W 002°15'1020.9
2018-Jun-14 02:31N 50°10' W 001°59'1121.4
2018-Jun-14 02:00N 50°13' W 001°43'1121.5
2018-Jun-14 01:31N 50°15' W 001°27'1121.3
2018-Jun-14 01:01N 50°17' W 001°10'1020.7
2018-Jun-14 00:31N 50°20' W 000°55'1019.4
2018-Jun-14 00:00N 50°23' W 000°40'918.9
2018-Jun-13 23:30N 50°25' W 000°26'918.4
2018-Jun-13 23:01N 50°28' W 000°12'917.6
2018-Jun-13 22:31N 50°30' E 000°01'917.1
2018-Jun-13 22:00N 50°32' E 000°14'816.5
2018-Jun-13 21:30N 50°35' E 000°27'816.0
2018-Jun-13 21:00N 50°38' E 000°38'816.6
2018-Jun-13 20:30N 50°43' E 000°49'917.3
2018-Jun-13 20:00N 50°48' E 001°00'918.4
2018-Jun-13 19:30N 50°53' E 001°12'1020.0
2018-Jun-13 19:00N 50°59' E 001°25'1121.1
2018-Jun-13 18:30N 51°07' E 001°36'1020.4
2018-Jun-13 18:00N 51°15' E 001°47'1019.2
2018-Jun-13 17:30N 51°23' E 001°54'815.2
2018-Jun-13 17:00N 51°24' E 002°06'918.3
2018-Jun-13 16:30N 51°20' E 002°19'918.2
2018-Jun-13 16:00N 51°23' E 002°33'815.3
2018-Jun-13 15:30N 51°22' E 002°46'815.9
2018-Jun-13 15:00N 51°23' E 002°58'816.4
2018-Jun-13 14:30N 51°24' E 003°11'816.9
2018-Jun-13 14:00N 51°25' E 003°25'714.6
2018-Jun-13 13:31N 51°26' E 003°36'5 9.4
2018-Jun-13 13:00N 51°24' E 003°43'713.3
2018-Jun-13 12:30N 51°21' E 003°53'713.4
2018-Jun-13 12:00N 51°26' E 003°60'611.9
2018-Jun-13 11:30N 51°22' E 004°07'4 8.7
2018-Jun-13 11:00N 51°22' E 004°14'4 8.3
2018-Jun-13 10:30N 51°18' E 004°16'1 2.7
2018-Jun-13 10:00N 51°17' E 004°15'0 0.0
2018-Jun-13 09:30N 51°17' E 004°15'1 1.3
2018-Jun-13 09:00N 51°16' E 004°14'1 1.8
2018-Jun-13 08:27N 51°16' E 004°13'0 0.0
2018-Jun-13 08:00N 51°16' E 004°13'0 0.0
2018-Jun-13 07:30N 51°16' E 004°13'0 0.0
2018-Jun-13 07:00N 51°16' E 004°13'0 0.0
2018-Jun-13 06:30N 51°16' E 004°13'0 0.0
2018-Jun-13 06:00N 51°16' E 004°13'0 0.0
2018-Jun-13 05:30N 51°16' E 004°13'0 0.0
2018-Jun-13 05:00N 51°16' E 004°13'0 0.0
2018-Jun-13 04:30N 51°16' E 004°13'0 0.0
2018-Jun-13 04:00N 51°16' E 004°13'0 0.0
2018-Jun-13 03:30N 51°16' E 004°13'0 0.0
2018-Jun-13 03:00N 51°16' E 004°13'0 0.0
2018-Jun-13 02:30N 51°16' E 004°13'0 0.0
2018-Jun-13 02:00N 51°16' E 004°13'0 0.0
2018-Jun-13 01:30N 51°16' E 004°13'0 0.0
2018-Jun-13 01:00N 51°16' E 004°13'0 0.0
2018-Jun-13 00:30N 51°16' E 004°13'0 0.0
2018-Jun-13 00:00N 51°16' E 004°13'0 0.0
2018-Jun-12 23:30N 51°16' E 004°13'0 0.0
2018-Jun-12 23:00N 51°16' E 004°13'  
Track history (hours):
 
Tides and Currents Weather Stations Pressure Air Temp Water Temp Dewpoint Dewpoint Depression Visibility Wind Speed Wind Dir Waves Ship Positions

Grande Portogallo

Last reported at 2018-Jun-22 22:35 UTC. Time now 2018-Jun-23 02:54 UTC.
Position N 40°30' E 026°59'.

Length 176 m; draft 7.3 m.

Type: Cargo ship. MMSI: 247065500.

Date/timePositionNaut miles runAvg speedWind from/ knotsBaromVisibWave heightAir tempDewpointWater temp
2018-Jun-22 22:35N 40°30' E 026°59'316.1
2018-Jun-22 22:22N 40°29' E 026°55'815.9
2018-Jun-22 21:51N 40°26' E 026°45'411.1
2018-Jun-22 21:30N 40°23' E 026°41'2913.2
2018-Jun-22 19:18N 40°02' E 026°15'410.6
2018-Jun-22 18:54N 40°01' E 026°10'615.3
2018-Jun-22 18:30N 39°59' E 026°02'715.2
2018-Jun-22 18:00N 39°53' E 025°55'815.0
2018-Jun-22 17:30N 39°48' E 025°50'816.2
2018-Jun-22 17:00N 39°40' E 025°45'14716.1
2018-Jun-22 07:49N 37°29' E 024°20'2115.9
2018-Jun-22 06:28N 37°12' E 024°03'816.1
2018-Jun-22 05:59N 37°05' E 023°57'816.3
2018-Jun-22 05:30N 36°59' E 023°52'816.2
2018-Jun-22 05:00N 36°53' E 023°45'1116.2
2018-Jun-22 04:19N 36°44' E 023°37'516.0
2018-Jun-22 04:00N 36°40' E 023°33'36715.5
2018-Jun-21 04:22N 37°47' E 016°01'615.7
2018-Jun-21 04:01N 37°49' E 015°54'815.9
2018-Jun-21 03:30N 37°51' E 015°44'1014.2
2018-Jun-21 02:49N 37°57' E 015°34'515.7
2018-Jun-21 02:30N 38°02' E 015°33'816.4
2018-Jun-21 02:00N 38°10' E 015°35'917.0
2018-Jun-21 01:30N 38°17' E 015°40'612.5
2018-Jun-21 01:00N 38°23' E 015°38'13215.7
2018-Jun-20 16:37N 40°28' E 014°43'216.4
2018-Jun-20 16:29N 40°30' E 014°42'6 0.5
2018-Jun-20 03:18N 40°36' E 014°42'517.1
2018-Jun-20 03:00N 40°34' E 014°36'611.4
2018-Jun-20 02:30N 40°32' E 014°29'5 9.7
2018-Jun-20 02:00N 40°30' E 014°23'5 9.7
2018-Jun-20 01:30N 40°28' E 014°17'510.8
2018-Jun-20 01:00N 40°26' E 014°11'815.2
2018-Jun-20 00:30N 40°23' E 014°02'815.2
2018-Jun-20 00:01N 40°20' E 013°52'815.1
2018-Jun-19 23:31N 40°17' E 013°43'815.0
2018-Jun-19 23:01N 40°14' E 013°34'1215.2
2018-Jun-19 22:13N 40°09' E 013°20'1115.4
2018-Jun-19 21:30N 40°04' E 013°07'915.4
2018-Jun-19 20:56N 40°01' E 012°56'2815.9
2018-Jun-19 19:09N 39°50' E 012°22'216.2
2018-Jun-19 19:00N 39°50' E 012°19'815.9
2018-Jun-19 18:31N 39°47' E 012°09'915.7
2018-Jun-19 17:56N 39°43' E 011°59'715.5
2018-Jun-19 17:27N 39°40' E 011°50'39716.5
2018-Jun-18 17:24N 39°01' E 003°18'1019.0
2018-Jun-18 16:54N 39°02' E 003°06'719.1
2018-Jun-18 16:30N 39°03' E 002°56'1019.0
2018-Jun-18 15:59N 39°04' E 002°44'918.7
2018-Jun-18 15:30N 39°05' E 002°32'1018.7
2018-Jun-18 14:59N 39°06' E 002°20'3618.9
2018-Jun-18 13:05N 39°12' E 001°34'219.0
2018-Jun-18 12:59N 39°12' E 001°31'918.8
2018-Jun-18 12:30N 39°13' E 001°20'7216.0
2018-Jun-18 08:01N 39°25' W 000°12'015.4
2018-Jun-18 08:00N 39°25' W 000°12'510.2
2018-Jun-18 07:30N 39°26' W 000°18'0 0.1
2018-Jun-18 06:58N 39°26' W 000°18'0 0.0
2018-Jun-18 06:28N 39°26' W 000°18'0 0.0
2018-Jun-18 05:58N 39°26' W 000°18'0 0.0
2018-Jun-18 05:28N 39°26' W 000°18'0 0.0
2018-Jun-18 04:58N 39°26' W 000°18'0 0.0
2018-Jun-18 04:28N 39°26' W 000°18'0 0.0
2018-Jun-18 03:58N 39°26' W 000°18'0 0.0
2018-Jun-18 03:28N 39°26' W 000°18'0 0.0
2018-Jun-18 02:58N 39°26' W 000°18'0 0.0
2018-Jun-18 02:28N 39°26' W 000°18'0 0.0
2018-Jun-18 01:58N 39°26' W 000°18'0 0.0
2018-Jun-18 01:28N 39°26' W 000°18'0 0.0
2018-Jun-18 00:58N 39°26' W 000°18'0 0.0
2018-Jun-18 00:28N 39°26' W 000°18'0 0.0
2018-Jun-17 23:58N 39°26' W 000°18'0 0.0
2018-Jun-17 23:28N 39°26' W 000°18'0 0.0
2018-Jun-17 22:58N 39°26' W 000°18'0 0.0
2018-Jun-17 22:28N 39°26' W 000°18'0 0.0
2018-Jun-17 21:58N 39°26' W 000°18'0 0.0
2018-Jun-17 21:28N 39°26' W 000°18'0 0.0
2018-Jun-17 20:58N 39°26' W 000°18'0 0.0
2018-Jun-17 20:28N 39°26' W 000°18'0 0.0
2018-Jun-17 19:58N 39°26' W 000°18'0 0.0
2018-Jun-17 19:28N 39°26' W 000°18'0 0.0
2018-Jun-17 18:58N 39°26' W 000°18'0 0.1
2018-Jun-17 18:30N 39°26' W 000°18'4613.8
2018-Jun-17 15:09N 38°52' E 000°22'316.1
2018-Jun-17 14:59N 38°50' E 000°24'714.5
2018-Jun-17 14:30N 38°44' E 000°28'815.9
2018-Jun-17 14:00N 38°37' E 000°24'915.8
2018-Jun-17 13:27N 38°30' E 000°17'715.7
2018-Jun-17 13:00N 38°24' E 000°12'815.6
2018-Jun-17 12:30N 38°18' E 000°07'815.7
2018-Jun-17 11:59N 38°11' E 000°01'815.7
2018-Jun-17 11:30N 38°04' W 000°04'815.6
2018-Jun-17 11:00N 37°58' W 000°10'815.5
2018-Jun-17 10:30N 37°52' W 000°15'815.5
2018-Jun-17 10:00N 37°45' W 000°21'815.2
2018-Jun-17 09:30N 37°39' W 000°26'815.0
2018-Jun-17 09:00N 37°33' W 000°31'815.4
2018-Jun-17 08:29N 37°27' W 000°39'715.4
2018-Jun-17 08:00N 37°22' W 000°46'714.9
2018-Jun-17 07:30N 37°18' W 000°53'815.2
2018-Jun-17 06:59N 37°13' W 001°01'815.6
2018-Jun-17 06:30N 37°07' W 001°08'1018.3
2018-Jun-17 05:56N 37°00' W 001°17'918.3
2018-Jun-17 05:28N 36°54' W 001°25'18218.1
2018-Jun-16 19:24N 36°02' W 005°02'920.2
2018-Jun-16 18:58N 36°01' W 005°12'920.4
2018-Jun-16 18:30N 35°58' W 005°24'9118.9
2018-Jun-16 13:39N 36°09' W 007°16'818.1
2018-Jun-16 13:13N 36°11' W 007°25'418.1
2018-Jun-16 13:00N 36°12' W 007°30'918.2
2018-Jun-16 12:30N 36°15' W 007°41'918.1
2018-Jun-16 12:00N 36°17' W 007°51'918.0
2018-Jun-16 11:30N 36°20' W 008°02'918.3
2018-Jun-16 11:00N 36°23' W 008°13'1318.4
2018-Jun-16 10:19N 36°27' W 008°28'618.6
2018-Jun-16 10:00N 36°29' W 008°34'1418.3
2018-Jun-16 09:14N 36°32' W 008°52'418.0
2018-Jun-16 09:00N 36°32' W 008°57'5716.1
2018-Jun-16 05:29N 37°17' W 009°40'1018.1
2018-Jun-16 04:57N 37°27' W 009°42'818.2
2018-Jun-16 04:30N 37°34' W 009°45'918.2
2018-Jun-16 04:00N 37°43' W 009°48'1018.0
2018-Jun-16 03:27N 37°53' W 009°51'818.1
2018-Jun-16 03:00N 38°01' W 009°53'918.3
2018-Jun-16 02:30N 38°10' W 009°56'918.4
2018-Jun-16 02:00N 38°19' W 009°58'918.5
2018-Jun-16 01:30N 38°28' W 010°01'918.5
2018-Jun-16 01:00N 38°37' W 010°04'918.5
2018-Jun-16 00:30N 38°46' W 010°06'918.2
2018-Jun-16 00:00N 38°55' W 010°06'918.3
2018-Jun-15 23:30N 39°04' W 010°07'918.5
2018-Jun-15 23:00N 39°13' W 010°07'918.6
2018-Jun-15 22:30N 39°23' W 010°08'1018.5
2018-Jun-15 21:58N 39°33' W 010°08'818.3
2018-Jun-15 21:30N 39°41' W 010°08'918.3
2018-Jun-15 21:00N 39°50' W 010°08'2418.5
2018-Jun-15 19:42N 40°14' W 010°08'1118.7
2018-Jun-15 19:05N 40°26' W 010°08'418.2
2018-Jun-15 18:52N 40°30' W 010°08'1718.4
2018-Jun-15 17:56N 40°47' W 010°08'818.2
2018-Jun-15 17:30N 40°55' W 010°08'48217.5
2018-Jun-14 14:03N 48°25' W 006°08'616.2
2018-Jun-14 13:40N 48°30' W 006°03'1116.9
2018-Jun-14 13:00N 48°40' W 005°55'1417.2
2018-Jun-14 12:12N 48°52' W 005°45'1817.7
2018-Jun-14 11:11N 49°02' W 005°22'318.2
2018-Jun-14 11:00N 49°04' W 005°18'1918.3
2018-Jun-14 09:59N 49°13' W 004°53'5816.6
2018-Jun-14 06:31N 49°42' W 003°37'015.0
2018-Jun-14 06:30N 49°43' W 003°37'814.8
2018-Jun-14 05:58N 49°47' W 003°26'714.9
2018-Jun-14 05:31N 49°50' W 003°17'815.4
2018-Jun-14 05:00N 49°55' W 003°07'816.5
2018-Jun-14 04:30N 49°58' W 002°56'917.5
2018-Jun-14 03:59N 50°01' W 002°42'1518.9
2018-Jun-14 03:10N 50°06' W 002°19'320.0
2018-Jun-14 03:00N 50°07' W 002°15'1020.9
2018-Jun-14 02:31N 50°10' W 001°59'1121.4
2018-Jun-14 02:00N 50°13' W 001°43'1121.5
2018-Jun-14 01:31N 50°15' W 001°27'1121.3
2018-Jun-14 01:01N 50°17' W 001°10'1020.7
2018-Jun-14 00:31N 50°20' W 000°55'1019.4
2018-Jun-14 00:00N 50°23' W 000°40'918.9
2018-Jun-13 23:30N 50°25' W 000°26'918.4
2018-Jun-13 23:01N 50°28' W 000°12'917.6
2018-Jun-13 22:31N 50°30' E 000°01'917.1
2018-Jun-13 22:00N 50°32' E 000°14'816.5
2018-Jun-13 21:30N 50°35' E 000°27'816.0
2018-Jun-13 21:00N 50°38' E 000°38'816.6
2018-Jun-13 20:30N 50°43' E 000°49'917.3
2018-Jun-13 20:00N 50°48' E 001°00'918.4
2018-Jun-13 19:30N 50°53' E 001°12'1020.0
2018-Jun-13 19:00N 50°59' E 001°25'1121.1
2018-Jun-13 18:30N 51°07' E 001°36'1020.4
2018-Jun-13 18:00N 51°15' E 001°47'1019.2
2018-Jun-13 17:30N 51°23' E 001°54'815.2
2018-Jun-13 17:00N 51°24' E 002°06'918.3
2018-Jun-13 16:30N 51°20' E 002°19'918.2
2018-Jun-13 16:00N 51°23' E 002°33'815.3
2018-Jun-13 15:30N 51°22' E 002°46'815.9
2018-Jun-13 15:00N 51°23' E 002°58'816.4
2018-Jun-13 14:30N 51°24' E 003°11'816.9
2018-Jun-13 14:00N 51°25' E 003°25'714.6
2018-Jun-13 13:31N 51°26' E 003°36'5 9.4
2018-Jun-13 13:00N 51°24' E 003°43'713.3
2018-Jun-13 12:30N 51°21' E 003°53'713.4
2018-Jun-13 12:00N 51°26' E 003°60'611.9
2018-Jun-13 11:30N 51°22' E 004°07'4 8.7
2018-Jun-13 11:00N 51°22' E 004°14'4 8.3
2018-Jun-13 10:30N 51°18' E 004°16'1 2.7
2018-Jun-13 10:00N 51°17' E 004°15'0 0.0
2018-Jun-13 09:30N 51°17' E 004°15'1 1.3
2018-Jun-13 09:00N 51°16' E 004°14'1 1.8
2018-Jun-13 08:27N 51°16' E 004°13'0 0.0
2018-Jun-13 08:00N 51°16' E 004°13'0 0.0
2018-Jun-13 07:30N 51°16' E 004°13'0 0.0
2018-Jun-13 07:00N 51°16' E 004°13'0 0.0
2018-Jun-13 06:30N 51°16' E 004°13'0 0.0
2018-Jun-13 06:00N 51°16' E 004°13'0 0.0
2018-Jun-13 05:30N 51°16' E 004°13'0 0.0
2018-Jun-13 05:00N 51°16' E 004°13'0 0.0
2018-Jun-13 04:30N 51°16' E 004°13'0 0.0
2018-Jun-13 04:00N 51°16' E 004°13'0 0.0
2018-Jun-13 03:30N 51°16' E 004°13'0 0.0
2018-Jun-13 03:00N 51°16' E 004°13'0 0.0
2018-Jun-13 02:30N 51°16' E 004°13'0 0.0
2018-Jun-13 02:00N 51°16' E 004°13'0 0.0
2018-Jun-13 01:30N 51°16' E 004°13'0 0.0
2018-Jun-13 01:00N 51°16' E 004°13'0 0.0
2018-Jun-13 00:30N 51°16' E 004°13'0 0.0
2018-Jun-13 00:00N 51°16' E 004°13'0 0.0
2018-Jun-12 23:30N 51°16' E 004°13'0 0.0
2018-Jun-12 23:00N 51°16' E 004°13'  

Dump ship's entire track history